createdAt,value
2017-08-14T00:00:50.321Z,0
2017-08-14T00:01:49.983Z,0
2017-08-14T00:02:50.259Z,0
2017-08-14T00:03:50.238Z,0
2017-08-14T00:04:50.219Z,0
2017-08-14T00:05:50.200Z,0
2017-08-14T00:06:50.179Z,0
2017-08-14T00:07:50.154Z,0
2017-08-14T00:08:49.851Z,0
2017-08-14T00:09:49.806Z,0
2017-08-14T00:10:49.789Z,0
2017-08-14T00:11:50.080Z,0
2017-08-14T00:12:50.047Z,0
2017-08-14T00:13:50.029Z,0
2017-08-14T00:14:50.037Z,0
2017-08-14T00:15:49.981Z,0
2017-08-14T00:16:49.958Z,0
2017-08-14T00:17:49.943Z,0
2017-08-14T00:18:49.910Z,0
2017-08-14T00:19:49.895Z,0
2017-08-14T00:20:49.879Z,0
2017-08-14T00:21:49.856Z,0
2017-08-14T00:22:49.835Z,0
2017-08-14T00:23:49.813Z,0
2017-08-14T00:24:49.820Z,0
2017-08-14T00:25:49.767Z,0
2017-08-14T00:26:49.748Z,0
2017-08-14T00:27:49.733Z,0
2017-08-14T00:28:49.414Z,0
2017-08-14T00:29:49.693Z,0
2017-08-14T00:30:49.657Z,0
2017-08-14T00:31:49.644Z,0
2017-08-14T00:32:49.615Z,0
2017-08-14T00:33:49.602Z,0
2017-08-14T00:34:49.582Z,0
2017-08-14T00:35:49.558Z,0
2017-08-14T00:36:49.547Z,0
2017-08-14T00:37:49.219Z,0
2017-08-14T00:38:49.497Z,0
2017-08-14T00:39:49.471Z,0
2017-08-14T00:40:49.449Z,0
2017-08-14T00:41:49.423Z,0
2017-08-14T00:42:49.408Z,0
2017-08-14T00:43:49.083Z,0
2017-08-14T00:44:49.377Z,0
2017-08-14T00:45:49.337Z,0
2017-08-14T00:46:49.019Z,0
2017-08-14T00:47:48.996Z,0
2017-08-14T00:48:49.267Z,0
2017-08-14T00:49:49.374Z,0
2017-08-14T00:50:49.238Z,0
2017-08-14T00:51:49.221Z,0
2017-08-14T00:52:49.246Z,0
2017-08-14T00:53:49.176Z,0
2017-08-14T00:54:49.146Z,0
2017-08-14T00:55:49.123Z,0
2017-08-14T00:57:03.710Z,0
2017-08-14T00:57:48.775Z,0
2017-08-14T00:58:49.063Z,0
2017-08-14T00:59:49.037Z,0
2017-08-14T01:00:48.715Z,0
2017-08-14T01:01:49.001Z,0
2017-08-14T01:02:48.974Z,0
2017-08-14T01:03:48.999Z,0
2017-08-14T01:04:48.929Z,0
2017-08-14T01:05:48.961Z,0
2017-08-14T01:06:48.941Z,0
2017-08-14T01:07:48.872Z,0
2017-08-14T01:08:48.545Z,0
2017-08-14T01:09:48.874Z,0
2017-08-14T01:10:48.511Z,0
2017-08-14T01:11:48.481Z,0
2017-08-14T01:12:49.000Z,0
2017-08-14T01:13:48.442Z,0
2017-08-14T01:14:48.729Z,0
2017-08-14T01:15:48.689Z,0
2017-08-14T01:16:48.675Z,0
2017-08-14T01:17:48.340Z,0
2017-08-14T01:18:48.636Z,0
2017-08-14T01:19:48.595Z,0
2017-08-14T01:20:48.634Z,0
2017-08-14T01:21:48.558Z,0
2017-08-14T01:22:48.536Z,0
2017-08-14T01:23:48.570Z,0
2017-08-14T01:24:48.494Z,0
2017-08-14T01:25:48.175Z,0
2017-08-14T01:26:48.445Z,0
2017-08-14T01:27:48.426Z,0
2017-08-14T01:28:48.413Z,0
2017-08-14T01:29:48.386Z,0
2017-08-14T01:30:48.380Z,0
2017-08-14T01:31:48.084Z,0
2017-08-14T01:32:48.332Z,0
2017-08-14T01:33:48.308Z,0
2017-08-14T01:34:48.278Z,0
2017-08-14T01:35:48.303Z,0
2017-08-14T01:36:48.235Z,0
2017-08-14T01:37:48.214Z,0
2017-08-14T01:38:48.209Z,0
2017-08-14T01:39:48.167Z,0
2017-08-14T01:40:48.212Z,0
2017-08-14T01:41:48.123Z,0
2017-08-14T01:42:48.106Z,0
2017-08-14T01:43:48.332Z,0
2017-08-14T01:44:48.075Z,0
2017-08-14T01:45:48.082Z,0
2017-08-14T01:46:48.016Z,0
2017-08-14T01:47:47.991Z,0
2017-08-14T01:48:47.672Z,0
2017-08-14T01:49:47.949Z,0
2017-08-14T01:50:47.953Z,0
2017-08-14T01:51:47.903Z,0
2017-08-14T01:52:47.889Z,0
2017-08-14T01:53:47.863Z,0
2017-08-14T01:54:47.838Z,0
2017-08-14T01:55:47.821Z,0
2017-08-14T01:56:47.858Z,0
2017-08-14T01:57:47.781Z,0
2017-08-14T01:58:47.457Z,0
2017-08-14T01:59:47.734Z,0
2017-08-14T02:00:47.709Z,0
2017-08-14T02:01:47.398Z,0
2017-08-14T02:02:47.673Z,0
2017-08-14T02:03:47.341Z,0
2017-08-14T02:04:47.634Z,0
2017-08-14T02:05:47.297Z,0
2017-08-14T02:06:47.640Z,0
2017-08-14T02:07:47.557Z,0
2017-08-14T02:08:47.546Z,0
2017-08-14T02:09:47.563Z,0
2017-08-14T02:10:47.490Z,0
2017-08-14T02:11:47.174Z,0
2017-08-14T02:12:47.140Z,0
2017-08-14T02:13:47.424Z,0
2017-08-14T02:14:47.401Z,0
2017-08-14T02:15:47.380Z,0
2017-08-14T02:16:47.410Z,0
2017-08-14T02:17:47.343Z,0
2017-08-14T02:18:47.366Z,0
2017-08-14T02:19:47.295Z,0
2017-08-14T02:20:47.273Z,0
2017-08-14T02:21:47.307Z,0
2017-08-14T02:22:46.936Z,0
2017-08-14T02:23:47.210Z,0
2017-08-14T02:24:47.186Z,0
2017-08-14T02:25:47.195Z,0
2017-08-14T02:26:46.846Z,0
2017-08-14T02:27:47.131Z,0
2017-08-14T02:28:46.796Z,0
2017-08-14T02:29:47.076Z,0
2017-08-14T02:30:47.118Z,0
2017-08-14T02:31:47.041Z,0
2017-08-14T02:32:47.018Z,0
2017-08-14T02:33:46.991Z,0
2017-08-14T02:34:46.974Z,0
2017-08-14T02:35:46.947Z,0
2017-08-14T02:36:46.934Z,0
2017-08-14T02:37:46.902Z,0
2017-08-14T02:38:46.897Z,0
2017-08-14T02:39:46.864Z,0
2017-08-14T02:40:46.838Z,0
2017-08-14T02:41:46.827Z,0
2017-08-14T02:42:46.802Z,0
2017-08-14T02:43:46.775Z,0
2017-08-14T02:44:46.552Z,0
2017-08-14T02:45:46.723Z,0
2017-08-14T02:46:46.715Z,0
2017-08-14T02:47:46.692Z,0
2017-08-14T02:48:46.372Z,0
2017-08-14T02:49:46.648Z,0
2017-08-14T02:50:46.626Z,0
2017-08-14T02:51:46.614Z,0
2017-08-14T02:52:46.582Z,0
2017-08-14T02:53:46.556Z,0
2017-08-14T02:54:46.532Z,0
2017-08-14T02:55:46.218Z,0
2017-08-14T02:56:46.183Z,0
2017-08-14T02:57:46.484Z,0
2017-08-14T02:58:46.501Z,0
2017-08-14T02:59:46.420Z,0
2017-08-14T03:00:46.411Z,0
2017-08-14T03:01:46.394Z,0
2017-08-14T03:02:46.059Z,0
2017-08-14T03:03:46.042Z,0
2017-08-14T03:04:46.322Z,0
2017-08-14T03:05:46.295Z,0
2017-08-14T03:06:46.277Z,0
2017-08-14T03:07:46.250Z,0
2017-08-14T03:08:46.287Z,0
2017-08-14T03:09:46.203Z,0
2017-08-14T03:10:46.232Z,0
2017-08-14T03:11:46.165Z,0
2017-08-14T03:12:46.135Z,0
2017-08-14T03:13:45.517Z,0
2017-08-14T03:14:46.093Z,0
2017-08-14T03:15:46.084Z,0
2017-08-14T03:16:46.050Z,0
2017-08-14T03:17:46.024Z,0
2017-08-14T03:18:46.022Z,0
2017-08-14T03:19:45.995Z,0
2017-08-14T03:20:45.982Z,0
2017-08-14T03:21:45.941Z,0
2017-08-14T03:22:45.920Z,0
2017-08-14T03:23:45.646Z,0
2017-08-14T03:24:45.877Z,0
2017-08-14T03:25:45.849Z,0
2017-08-14T03:26:45.845Z,0
2017-08-14T03:27:45.878Z,0
2017-08-14T03:28:45.838Z,0
2017-08-14T03:29:45.475Z,0
2017-08-14T03:30:45.753Z,0
2017-08-14T03:31:45.728Z,4
2017-08-14T03:32:45.709Z,4
2017-08-14T03:33:45.679Z,0
2017-08-14T03:34:45.655Z,0
2017-08-14T03:35:45.632Z,4
2017-08-14T03:36:45.058Z,4
2017-08-14T03:37:45.287Z,0
2017-08-14T03:38:45.632Z,4
2017-08-14T03:39:45.253Z,4
2017-08-14T03:40:45.541Z,4
2017-08-14T03:41:45.507Z,4
2017-08-14T03:42:45.546Z,4
2017-08-14T03:43:45.464Z,12
2017-08-14T03:44:45.143Z,12
2017-08-14T03:45:45.126Z,8
2017-08-14T03:46:45.394Z,12
2017-08-14T03:47:45.370Z,16
2017-08-14T03:48:45.348Z,20
2017-08-14T03:49:45.333Z,24
2017-08-14T03:50:45.004Z,24
2017-08-14T03:51:45.284Z,28
2017-08-14T03:52:44.954Z,32
2017-08-14T03:53:45.248Z,36
2017-08-14T03:54:45.226Z,44
2017-08-14T03:55:45.198Z,48
2017-08-14T03:56:45.186Z,56
2017-08-14T03:57:44.855Z,64
2017-08-14T03:58:45.136Z,72
2017-08-14T03:59:45.102Z,80
2017-08-14T04:00:45.105Z,88
2017-08-14T04:01:45.062Z,100
2017-08-14T04:02:45.048Z,112
2017-08-14T04:03:44.726Z,124
2017-08-14T04:04:45.013Z,136
2017-08-14T04:05:44.979Z,152
2017-08-14T04:06:44.954Z,164
2017-08-14T04:07:44.932Z,184
2017-08-14T04:08:44.915Z,200
2017-08-14T04:09:44.901Z,220
2017-08-14T04:10:44.926Z,240
2017-08-14T04:11:44.868Z,264
2017-08-14T04:12:44.826Z,284
2017-08-14T04:13:44.803Z,308
2017-08-14T04:14:44.779Z,336
2017-08-14T04:15:44.797Z,364
2017-08-14T04:16:44.736Z,392
2017-08-14T04:17:44.719Z,424
2017-08-14T04:18:44.691Z,456
2017-08-14T04:19:44.670Z,488
2017-08-14T04:20:44.351Z,524
2017-08-14T04:21:44.632Z,560
2017-08-14T04:22:44.302Z,600
2017-08-14T04:23:44.587Z,648
2017-08-14T04:24:44.558Z,692
2017-08-14T04:25:44.533Z,744
2017-08-14T04:26:44.227Z,788
2017-08-14T04:27:44.490Z,836
2017-08-14T04:28:44.473Z,892
2017-08-14T04:29:44.459Z,956
2017-08-14T04:30:44.132Z,1032
2017-08-14T04:31:44.409Z,1104
2017-08-14T04:32:44.379Z,1172
2017-08-14T04:33:44.419Z,1244
2017-08-14T04:34:44.350Z,1328
2017-08-14T04:35:44.337Z,1420
2017-08-14T04:36:44.301Z,1520
2017-08-14T04:37:44.280Z,1624
2017-08-14T04:38:43.956Z,1720
2017-08-14T04:39:44.282Z,1816
2017-08-14T04:40:44.213Z,1900
2017-08-14T04:41:44.246Z,1976
2017-08-14T04:42:44.208Z,2064
2017-08-14T04:43:44.140Z,2184
2017-08-14T04:44:44.128Z,2288
2017-08-14T04:45:44.113Z,2388
2017-08-14T04:46:44.070Z,2516
2017-08-14T04:47:44.064Z,2656
2017-08-14T04:48:44.039Z,2788
2017-08-14T04:49:44.016Z,2892
2017-08-14T04:50:43.730Z,3004
2017-08-14T04:51:44.021Z,3136
2017-08-14T04:52:43.943Z,3224
2017-08-14T04:53:43.923Z,3332
2017-08-14T04:54:43.956Z,3508
2017-08-14T04:55:43.880Z,3652
2017-08-14T04:56:43.553Z,3800
2017-08-14T04:57:43.890Z,3964
2017-08-14T04:58:43.828Z,4120
2017-08-14T04:59:43.796Z,4268
2017-08-14T05:00:43.828Z,4408
2017-08-14T05:01:43.748Z,4600
2017-08-14T05:02:43.734Z,4756
2017-08-14T05:03:43.707Z,4872
2017-08-14T05:04:43.741Z,4968
2017-08-14T05:05:43.675Z,5016
2017-08-14T05:06:43.645Z,5140
2017-08-14T05:07:43.693Z,5352
2017-08-14T05:08:43.614Z,5572
2017-08-14T05:09:43.591Z,5784
2017-08-14T05:10:43.567Z,5964
2017-08-14T05:11:43.249Z,6092
2017-08-14T05:12:43.516Z,6208
2017-08-14T05:13:43.548Z,6408
2017-08-14T05:14:43.477Z,6600
2017-08-14T05:15:43.459Z,6788
2017-08-14T05:16:43.141Z,6952
2017-08-14T05:17:43.419Z,7104
2017-08-14T05:18:43.396Z,7224
2017-08-14T05:19:43.373Z,7388
2017-08-14T05:20:43.357Z,7564
2017-08-14T05:21:43.336Z,7704
2017-08-14T05:22:43.369Z,7920
2017-08-14T05:23:43.288Z,8108
2017-08-14T05:24:43.277Z,8320
2017-08-14T05:25:43.249Z,8408
2017-08-14T05:26:43.235Z,8524
2017-08-14T05:27:43.210Z,8648
2017-08-14T05:28:43.192Z,8736
2017-08-14T05:29:43.171Z,8800
2017-08-14T05:30:43.156Z,8744
2017-08-14T05:31:43.129Z,8892
2017-08-14T05:32:43.159Z,9332
2017-08-14T05:33:43.089Z,9548
2017-08-14T05:34:43.125Z,9788
2017-08-14T05:35:43.061Z,9924
2017-08-14T05:36:43.038Z,10056
2017-08-14T05:37:42.999Z,10220
2017-08-14T05:38:42.989Z,10124
2017-08-14T05:39:42.985Z,9452
2017-08-14T05:40:42.666Z,10580
2017-08-14T05:41:42.941Z,10432
2017-08-14T05:42:42.916Z,9984
2017-08-14T05:43:43.098Z,11092
2017-08-14T05:44:42.881Z,11436
2017-08-14T05:45:42.918Z,11480
2017-08-14T05:46:42.843Z,11652
2017-08-14T05:47:42.515Z,12020
2017-08-14T05:48:42.194Z,12132
2017-08-14T05:49:42.785Z,12272
2017-08-14T05:50:42.763Z,12396
2017-08-14T05:51:42.739Z,12584
2017-08-14T05:52:57.320Z,12332
2017-08-14T05:53:42.698Z,12244
2017-08-14T05:54:42.672Z,13056
2017-08-14T05:55:42.561Z,13268
2017-08-14T05:56:42.648Z,13424
2017-08-14T05:57:42.629Z,13604
2017-08-14T05:58:42.302Z,13524
2017-08-14T05:59:42.821Z,13260
2017-08-14T06:00:42.573Z,12520
2017-08-14T06:01:42.544Z,11084
2017-08-14T06:02:42.577Z,11260
2017-08-14T06:03:42.508Z,12412
2017-08-14T06:04:57.102Z,14784
2017-08-14T06:05:42.168Z,14912
2017-08-14T06:06:42.466Z,15008
2017-08-14T06:07:42.484Z,15104
2017-08-14T06:08:42.481Z,15104
2017-08-14T06:09:42.397Z,12400
2017-08-14T06:10:42.381Z,13372
2017-08-14T06:11:42.364Z,12708
2017-08-14T06:12:42.336Z,12424
2017-08-14T06:13:42.374Z,13496
2017-08-14T06:14:42.053Z,14676
2017-08-14T06:15:42.277Z,14008
2017-08-14T06:16:42.264Z,14316
2017-08-14T06:17:42.243Z,16256
2017-08-14T06:18:42.240Z,17088
2017-08-14T06:19:42.218Z,17152
2017-08-14T06:20:42.189Z,17280
2017-08-14T06:21:42.378Z,17408
2017-08-14T06:22:42.198Z,17824
2017-08-14T06:23:42.132Z,18304
2017-08-14T06:24:42.110Z,18208
2017-08-14T06:25:42.115Z,17728
2017-08-14T06:26:42.132Z,18624
2017-08-14T06:27:42.078Z,18624
2017-08-14T06:28:41.742Z,18304
2017-08-14T06:29:42.044Z,18304
2017-08-14T06:30:42.007Z,18656
2017-08-14T06:31:42.004Z,18624
2017-08-14T06:32:41.974Z,18720
2017-08-14T06:33:41.655Z,18720
2017-08-14T06:34:42.157Z,17888
2017-08-14T06:35:41.926Z,18624
2017-08-14T06:36:41.910Z,19424
2017-08-14T06:37:41.900Z,20416
2017-08-14T06:38:41.875Z,20832
2017-08-14T06:39:41.853Z,21120
2017-08-14T06:40:41.843Z,21792
2017-08-14T06:41:41.520Z,22144
2017-08-14T06:42:41.807Z,21568
2017-08-14T06:43:42.007Z,21344
2017-08-14T06:44:41.771Z,21600
2017-08-14T06:45:41.455Z,22976
2017-08-14T06:46:41.739Z,22592
2017-08-14T06:47:41.775Z,23296
2017-08-14T06:48:41.713Z,23872
2017-08-14T06:49:41.698Z,22784
2017-08-14T06:50:41.676Z,22176
2017-08-14T06:51:41.657Z,22592
2017-08-14T06:52:41.703Z,23968
2017-08-14T06:53:41.679Z,23840
2017-08-14T06:54:41.611Z,23936
2017-08-14T06:55:41.599Z,25216
2017-08-14T06:56:41.877Z,25792
2017-08-14T06:57:41.264Z,25184
2017-08-14T06:58:41.547Z,24448
2017-08-14T06:59:41.539Z,23776
2017-08-14T07:00:41.520Z,23840
2017-08-14T07:01:41.503Z,23200
2017-08-14T07:02:41.502Z,22208
2017-08-14T07:03:41.479Z,22432
2017-08-14T07:04:41.489Z,24672
2017-08-14T07:05:41.444Z,25280
2017-08-14T07:06:41.426Z,26048
2017-08-14T07:07:41.458Z,25504
2017-08-14T07:08:41.403Z,26848
2017-08-14T07:09:41.382Z,28416
2017-08-14T07:10:41.373Z,28960
2017-08-14T07:11:41.360Z,28672
2017-08-14T07:12:41.336Z,28832
2017-08-14T07:13:41.329Z,30144
2017-08-14T07:14:41.318Z,30464
2017-08-14T07:15:41.301Z,29760
2017-08-14T07:16:41.279Z,28960
2017-08-14T07:17:40.968Z,28768
2017-08-14T07:18:41.261Z,29408
2017-08-14T07:19:41.292Z,29632
2017-08-14T07:20:40.918Z,29568
2017-08-14T07:21:41.213Z,30208
2017-08-14T07:22:41.191Z,31424
2017-08-14T07:23:41.178Z,31168
2017-08-14T07:24:41.210Z,30944
2017-08-14T07:25:41.151Z,31264
2017-08-14T07:26:41.245Z,30496
2017-08-14T07:27:41.135Z,31712
2017-08-14T07:28:41.116Z,34880
2017-08-14T07:29:40.788Z,36864
2017-08-14T07:30:41.144Z,36416
2017-08-14T07:31:41.075Z,35232
2017-08-14T07:32:41.046Z,34336
2017-08-14T07:33:41.040Z,33536
2017-08-14T07:34:41.077Z,32896
2017-08-14T07:35:41.002Z,34912
2017-08-14T07:36:40.997Z,37696
2017-08-14T07:37:41.028Z,39680
2017-08-14T07:38:40.973Z,38784
2017-08-14T07:39:41.209Z,36384
2017-08-14T07:40:40.940Z,34624
2017-08-14T07:41:40.933Z,33952
2017-08-14T07:42:40.924Z,32672
2017-08-14T07:43:40.912Z,30272
2017-08-14T07:44:40.904Z,28160
2017-08-14T07:45:40.926Z,29248
2017-08-14T07:46:40.865Z,32544
2017-08-14T07:47:40.248Z,35744
2017-08-14T07:48:40.851Z,38176
2017-08-14T07:49:40.834Z,39488
2017-08-14T07:50:40.819Z,39168
2017-08-14T07:51:40.814Z,38272
2017-08-14T07:52:40.860Z,38624
2017-08-14T07:53:40.790Z,41440
2017-08-14T07:54:40.777Z,43872
2017-08-14T07:55:40.762Z,44672
2017-08-14T07:56:40.752Z,46880
2017-08-14T07:57:40.496Z,50720
2017-08-14T07:58:40.730Z,52064
2017-08-14T07:59:40.723Z,51296
2017-08-14T08:00:40.400Z,49056
2017-08-14T08:01:40.708Z,48800
2017-08-14T08:02:40.686Z,51744
2017-08-14T08:03:40.726Z,54880
2017-08-14T08:04:40.676Z,55360
2017-08-14T08:05:40.659Z,55232
2017-08-14T08:06:40.647Z,53920
2017-08-14T08:07:40.635Z,53472
2017-08-14T08:08:40.629Z,54080
2017-08-14T08:09:40.607Z,56800
2017-08-14T08:10:40.610Z,61152
2017-08-14T08:11:40.589Z,64096
2017-08-14T08:12:40.276Z,63392
2017-08-14T08:13:40.568Z,60096
2017-08-14T08:14:40.559Z,54912
2017-08-14T08:15:40.244Z,54752
2017-08-14T08:16:40.539Z,57184
2017-08-14T08:17:40.532Z,57984
2017-08-14T08:18:40.770Z,54976
2017-08-14T08:19:40.511Z,52160
2017-08-14T08:20:40.502Z,50336
2017-08-14T08:21:40.497Z,50464
2017-08-14T08:22:40.494Z,53280
2017-08-14T08:23:40.470Z,57728
2017-08-14T08:24:40.474Z,59840
2017-08-14T08:25:40.446Z,58464
2017-08-14T08:26:40.450Z,56224
2017-08-14T08:27:40.444Z,54784
2017-08-14T08:28:40.432Z,54624
2017-08-14T08:29:40.429Z,56448
2017-08-14T08:30:40.412Z,58528
2017-08-14T08:31:40.392Z,59392
2017-08-14T08:32:40.396Z,56160
2017-08-14T08:33:40.384Z,53504
2017-08-14T08:34:40.381Z,52192
2017-08-14T08:35:40.366Z,51584
2017-08-14T08:36:40.042Z,51744
2017-08-14T08:37:40.355Z,53248
2017-08-14T08:38:40.346Z,53248
2017-08-14T08:39:40.381Z,51744
2017-08-14T08:40:40.314Z,47808
2017-08-14T08:41:40.306Z,45760
2017-08-14T08:42:40.010Z,46144
2017-08-14T08:43:40.041Z,48224
2017-08-14T08:44:40.292Z,52128
2017-08-14T08:45:40.277Z,56160
2017-08-14T08:46:40.266Z,56960
2017-08-14T08:47:40.251Z,56736
2017-08-14T08:48:40.346Z,54016
2017-08-14T08:49:40.295Z,51136
2017-08-14T08:50:40.233Z,52960
2017-08-14T08:51:40.214Z,59872
2017-08-14T08:52:40.209Z,66656
2017-08-14T08:53:39.909Z,71392
2017-08-14T08:54:40.192Z,70912
2017-08-14T08:55:40.189Z,64192
2017-08-14T08:56:40.180Z,55840
2017-08-14T08:57:39.872Z,51904
2017-08-14T08:58:40.165Z,52224
2017-08-14T08:59:40.152Z,55840
2017-08-14T09:00:39.845Z,63136
2017-08-14T09:01:40.147Z,66528
2017-08-14T09:02:40.126Z,65664
2017-08-14T09:03:40.131Z,60992
2017-08-14T09:04:40.117Z,54848
2017-08-14T09:05:40.103Z,48512
2017-08-14T09:06:40.099Z,46304
2017-08-14T09:07:40.097Z,45216
2017-08-14T09:08:40.095Z,46816
2017-08-14T09:09:40.075Z,48192
2017-08-14T09:10:39.824Z,50688
2017-08-14T09:11:40.065Z,54368
2017-08-14T09:12:40.054Z,58880
2017-08-14T09:13:40.049Z,61760
2017-08-14T09:14:40.040Z,60864
2017-08-14T09:15:39.733Z,57408
2017-08-14T09:16:39.975Z,51616
2017-08-14T09:17:40.019Z,45888
2017-08-14T09:18:40.020Z,42144
2017-08-14T09:19:39.998Z,41056
2017-08-14T09:20:39.983Z,43104
2017-08-14T09:21:39.989Z,48448
2017-08-14T09:22:40.014Z,54560
2017-08-14T09:23:39.960Z,60672
2017-08-14T09:24:39.651Z,65760
2017-08-14T09:25:39.951Z,65632
2017-08-14T09:26:39.935Z,61056
2017-08-14T09:27:39.980Z,55712
2017-08-14T09:28:39.921Z,51392
2017-08-14T09:29:39.904Z,51328
2017-08-14T09:30:39.905Z,52576
2017-08-14T09:31:39.907Z,53824
2017-08-14T09:32:39.584Z,57056
2017-08-14T09:33:39.577Z,60192
2017-08-14T09:34:39.970Z,60352
2017-08-14T09:35:39.564Z,59072
2017-08-14T09:36:39.845Z,56992
2017-08-14T09:37:39.854Z,54688
2017-08-14T09:38:39.879Z,52128
2017-08-14T09:39:39.846Z,49504
2017-08-14T09:40:39.808Z,47456
2017-08-14T09:41:39.817Z,46080
2017-08-14T09:42:39.858Z,45504
2017-08-14T09:43:39.792Z,48288
2017-08-14T09:44:40.002Z,51648
2017-08-14T09:45:39.488Z,54592
2017-08-14T09:46:39.815Z,59136
2017-08-14T09:47:39.774Z,63072
2017-08-14T09:48:39.695Z,68128
2017-08-14T09:49:39.748Z,73952
2017-08-14T09:50:39.731Z,73888
2017-08-14T09:51:39.739Z,69344
2017-08-14T09:52:39.766Z,61024
2017-08-14T09:53:39.718Z,53696
2017-08-14T09:54:39.714Z,51008
2017-08-14T09:55:39.746Z,52576
2017-08-14T09:56:39.689Z,60192
2017-08-14T09:57:39.678Z,66720
2017-08-14T09:58:39.369Z,70464
2017-08-14T09:59:39.667Z,70368
2017-08-14T10:00:39.659Z,66656
2017-08-14T10:01:39.647Z,62272
2017-08-14T10:02:39.638Z,62080
2017-08-14T10:03:39.032Z,67392
2017-08-14T10:04:39.619Z,74560
2017-08-14T10:05:39.608Z,80768
2017-08-14T10:06:39.863Z,80608
2017-08-14T10:07:39.606Z,77312
2017-08-14T10:08:39.295Z,71328
2017-08-14T10:09:39.286Z,65760
2017-08-14T10:10:39.630Z,60224
2017-08-14T10:11:39.581Z,55936
2017-08-14T10:12:39.562Z,57472
2017-08-14T10:13:39.555Z,60992
2017-08-14T10:14:39.533Z,67296
2017-08-14T10:15:39.227Z,74816
2017-08-14T10:16:39.541Z,80192
2017-08-14T10:17:39.517Z,81984
2017-08-14T10:18:39.510Z,80800
2017-08-14T10:19:39.525Z,78912
2017-08-14T10:20:39.496Z,75808
2017-08-14T10:21:39.488Z,73888
2017-08-14T10:22:39.176Z,73696
2017-08-14T10:23:39.464Z,79200
2017-08-14T10:24:39.169Z,86592
2017-08-14T10:25:39.158Z,91584
2017-08-14T10:26:39.450Z,93248
2017-08-14T10:27:39.455Z,91936
2017-08-14T10:28:39.436Z,85152
2017-08-14T10:29:39.441Z,77536
2017-08-14T10:30:39.415Z,71392
2017-08-14T10:31:39.397Z,69824
2017-08-14T10:32:39.397Z,72992
2017-08-14T10:33:39.398Z,75680
2017-08-14T10:34:39.374Z,75584
2017-08-14T10:35:39.375Z,74080
2017-08-14T10:36:39.372Z,70848
2017-08-14T10:37:39.365Z,67968
2017-08-14T10:38:39.346Z,68128
2017-08-14T10:39:39.393Z,69472
2017-08-14T10:40:39.331Z,74944
2017-08-14T10:41:39.320Z,80000
2017-08-14T10:42:39.310Z,81248
2017-08-14T10:43:39.296Z,55776
2017-08-14T10:44:39.293Z,18368
2017-08-14T10:45:39.290Z,6676
2017-08-14T10:46:39.281Z,6560
2017-08-14T10:47:39.272Z,6556
2017-08-14T10:48:39.258Z,6476
2017-08-14T10:49:39.253Z,6444
2017-08-14T10:50:39.246Z,6512
2017-08-14T10:51:39.228Z,6516
2017-08-14T10:52:39.273Z,6528
2017-08-14T10:53:39.234Z,6556
2017-08-14T10:54:38.892Z,6472
2017-08-14T10:55:38.881Z,6456
2017-08-14T10:56:39.184Z,6528
2017-08-14T10:57:39.157Z,6648
2017-08-14T10:58:39.145Z,6740
2017-08-14T10:59:39.176Z,6728
2017-08-14T11:00:38.811Z,6704
2017-08-14T11:01:39.104Z,6736
2017-08-14T11:02:39.089Z,6812
2017-08-14T11:03:39.079Z,6892
2017-08-14T11:04:39.060Z,6896
2017-08-14T11:05:39.037Z,7020
2017-08-14T11:06:39.024Z,7304
2017-08-14T11:07:39.005Z,7196
2017-08-14T11:08:38.989Z,6812
2017-08-14T11:09:38.982Z,6568
2017-08-14T11:10:38.957Z,6416
2017-08-14T11:11:38.957Z,6388
2017-08-14T11:12:38.936Z,6316
2017-08-14T11:13:38.976Z,6176
2017-08-14T11:14:38.918Z,6236
2017-08-14T11:15:38.931Z,6404
2017-08-14T11:16:38.869Z,6432
2017-08-14T11:17:38.560Z,6440
2017-08-14T11:18:38.827Z,6532
2017-08-14T11:19:38.871Z,6644
2017-08-14T11:20:38.809Z,6704
2017-08-14T11:21:38.841Z,6868
2017-08-14T11:22:38.474Z,6956
2017-08-14T11:23:38.749Z,7120
2017-08-14T11:24:38.728Z,7156
2017-08-14T11:25:38.414Z,7320
2017-08-14T11:26:38.697Z,7532
2017-08-14T11:27:38.678Z,7240
2017-08-14T11:28:38.058Z,6820
2017-08-14T11:29:38.394Z,6404
2017-08-14T11:30:38.624Z,6280
2017-08-14T11:31:38.309Z,6372
2017-08-14T11:32:38.636Z,6504
2017-08-14T11:33:38.331Z,6728
2017-08-14T11:34:38.581Z,6740
2017-08-14T11:35:38.543Z,6696
2017-08-14T11:36:38.539Z,6824
2017-08-14T11:37:38.507Z,6864
2017-08-14T11:38:38.545Z,7228
2017-08-14T11:39:38.483Z,7412
2017-08-14T11:40:38.458Z,6884
2017-08-14T11:41:38.455Z,6436
2017-08-14T11:42:38.215Z,6068
2017-08-14T11:43:38.458Z,5892
2017-08-14T11:44:38.411Z,5860
2017-08-14T11:45:38.391Z,5960
2017-08-14T11:46:38.355Z,6008
2017-08-14T11:47:38.338Z,6072
2017-08-14T11:48:38.378Z,6204
2017-08-14T11:49:38.351Z,6272
2017-08-14T11:50:38.292Z,6484
2017-08-14T11:51:37.984Z,7048
2017-08-14T11:52:38.301Z,7988
2017-08-14T11:53:38.244Z,8624
2017-08-14T11:54:37.913Z,8644
2017-08-14T11:55:37.887Z,8096
2017-08-14T11:56:37.871Z,7348
2017-08-14T11:57:37.870Z,6792
2017-08-14T11:58:38.144Z,6496
2017-08-14T11:59:38.145Z,6412
2017-08-14T12:00:38.130Z,6364
2017-08-14T12:01:37.891Z,6420
2017-08-14T12:02:37.778Z,6440
2017-08-14T12:03:38.068Z,6480
2017-08-14T12:04:38.043Z,6768
2017-08-14T12:05:38.122Z,6908
2017-08-14T12:06:38.033Z,7240
2017-08-14T12:07:37.690Z,7256
2017-08-14T12:08:38.010Z,7940
2017-08-14T12:09:37.958Z,8984
2017-08-14T12:10:37.953Z,10084
2017-08-14T12:11:37.910Z,10508
2017-08-14T12:12:37.907Z,11376
2017-08-14T12:13:37.885Z,12576
2017-08-14T12:14:37.878Z,12784
2017-08-14T12:15:37.856Z,12048
2017-08-14T12:16:37.833Z,10984
2017-08-14T12:17:37.830Z,10188
2017-08-14T12:18:37.808Z,8876
2017-08-14T12:19:37.805Z,7888
2017-08-14T12:20:37.782Z,7248
2017-08-14T12:21:37.471Z,7208
2017-08-14T12:22:37.746Z,7796
2017-08-14T12:23:37.728Z,8272
2017-08-14T12:24:37.715Z,8860
2017-08-14T12:25:37.390Z,8248
2017-08-14T12:26:37.726Z,8756
2017-08-14T12:27:37.360Z,8852
2017-08-14T12:28:37.644Z,8828
2017-08-14T12:29:37.641Z,8600
2017-08-14T12:30:37.600Z,8496
2017-08-14T12:31:37.581Z,7788
2017-08-14T12:32:37.569Z,7296
2017-08-14T12:33:37.254Z,7720
2017-08-14T12:34:37.578Z,8948
2017-08-14T12:35:37.502Z,10424
2017-08-14T12:36:37.495Z,11488
2017-08-14T12:37:37.539Z,12188
2017-08-14T12:38:37.462Z,12472
2017-08-14T12:39:37.153Z,13296
2017-08-14T12:40:37.444Z,14372
2017-08-14T12:41:36.819Z,14760
2017-08-14T12:42:37.393Z,14772
2017-08-14T12:43:37.380Z,13844
2017-08-14T12:44:37.362Z,13248
2017-08-14T12:45:37.337Z,12892
2017-08-14T12:46:37.337Z,12608
2017-08-14T12:47:37.327Z,10692
2017-08-14T12:48:37.300Z,10656
2017-08-14T12:49:37.292Z,11016
2017-08-14T12:50:36.959Z,10920
2017-08-14T12:51:37.250Z,10120
2017-08-14T12:52:37.233Z,9656
2017-08-14T12:53:36.968Z,10936
2017-08-14T12:54:37.190Z,12116
2017-08-14T12:55:37.181Z,12684
2017-08-14T12:56:37.166Z,13268
2017-08-14T12:57:37.149Z,13588
2017-08-14T12:58:36.880Z,13496
2017-08-14T12:59:36.820Z,13388
2017-08-14T13:00:37.095Z,13592
2017-08-14T13:01:37.091Z,13300
2017-08-14T13:02:37.056Z,12528
2017-08-14T13:03:37.073Z,12860
2017-08-14T13:04:36.724Z,13236
2017-08-14T13:05:37.019Z,13580
2017-08-14T13:06:37.007Z,12580
2017-08-14T13:07:36.983Z,12244
2017-08-14T13:08:37.065Z,12112
2017-08-14T13:09:36.946Z,12772
2017-08-14T13:10:36.928Z,12312
2017-08-14T13:11:36.925Z,12472
2017-08-14T13:12:36.912Z,12520
2017-08-14T13:13:36.895Z,12300
2017-08-14T13:14:36.870Z,12172
2017-08-14T13:15:36.861Z,11720
2017-08-14T13:16:36.834Z,11048
2017-08-14T13:17:36.815Z,10500
2017-08-14T13:18:36.805Z,10280
2017-08-14T13:19:36.782Z,9900
2017-08-14T13:20:36.768Z,10352
2017-08-14T13:21:36.765Z,10588
2017-08-14T13:22:36.791Z,11116
2017-08-14T13:23:36.717Z,12876
2017-08-14T13:24:36.706Z,14360
2017-08-14T13:25:36.694Z,14852
2017-08-14T13:26:36.668Z,14624
2017-08-14T13:27:36.659Z,14228
2017-08-14T13:28:36.701Z,14084
2017-08-14T13:29:36.672Z,14004
2017-08-14T13:30:36.602Z,12824